createdAt,value
2022-12-06T00:00:41.906Z,3.58
2022-12-06T00:05:46.193Z,3.60
2022-12-06T00:10:43.708Z,3.64
2022-12-06T00:15:44.864Z,3.44
2022-12-06T00:20:46.026Z,3.21
2022-12-06T00:25:47.231Z,3.07
2022-12-06T00:30:48.434Z,3.02
2022-12-06T00:35:49.620Z,2.94
2022-12-06T00:40:50.713Z,2.87
2022-12-06T00:45:51.980Z,2.81
2022-12-06T00:50:53.144Z,2.73
2022-12-06T00:55:54.311Z,2.70
2022-12-06T01:00:55.540Z,2.58
2022-12-06T01:05:56.723Z,2.59
2022-12-06T01:10:57.894Z,2.55
2022-12-06T01:15:59.098Z,2.58
2022-12-06T01:21:00.550Z,2.37
2022-12-06T01:26:01.723Z,2.19
2022-12-06T01:31:02.983Z,2.01
2022-12-06T01:36:04.167Z,1.89
2022-12-06T01:41:05.321Z,1.91
2022-12-06T01:46:06.525Z,1.87
2022-12-06T01:51:07.630Z,1.83
2022-12-06T01:56:08.796Z,1.73
2022-12-06T02:01:09.967Z,1.64
2022-12-06T02:06:11.150Z,1.72
2022-12-06T02:11:12.235Z,1.76
2022-12-06T02:16:13.430Z,1.71
2022-12-06T02:21:14.642Z,1.37
2022-12-06T02:26:15.805Z,1.28
2022-12-06T02:31:17.066Z,1.18
2022-12-06T02:36:18.312Z,0.94
2022-12-06T02:41:19.520Z,0.78
2022-12-06T02:46:20.791Z,0.85
2022-12-06T02:51:21.963Z,1.07
2022-12-06T02:56:23.162Z,0.94
2022-12-06T03:01:24.411Z,0.86
2022-12-06T03:06:25.622Z,0.62
2022-12-06T03:11:26.799Z,0.45
2022-12-06T03:16:27.926Z,0.42
2022-12-06T03:21:30.101Z,0.20
2022-12-06T03:26:29.247Z,0.05
2022-12-06T03:31:30.581Z,0.00
2022-12-06T03:36:31.785Z,-0.11
2022-12-06T03:41:33.009Z,-0.30
2022-12-06T03:46:34.283Z,-0.47
2022-12-06T03:51:35.476Z,-0.66
2022-12-06T03:56:36.677Z,-0.51
2022-12-06T04:01:37.913Z,-0.34
2022-12-06T04:06:39.093Z,-0.04
2022-12-06T04:11:40.325Z,0.41
2022-12-06T04:16:41.544Z,0.82
2022-12-06T04:21:42.825Z,1.21
2022-12-06T04:26:44.108Z,1.44
2022-12-06T04:31:45.414Z,1.42
2022-12-06T04:36:46.628Z,1.42
2022-12-06T04:41:47.786Z,1.40
2022-12-06T04:46:49.022Z,1.37
2022-12-06T04:51:50.202Z,1.39
2022-12-06T04:56:51.397Z,1.47
2022-12-06T05:01:53.549Z,1.37
2022-12-06T05:06:52.688Z,1.46
2022-12-06T05:11:53.862Z,1.51
2022-12-06T05:16:55.369Z,1.73
2022-12-06T05:21:54.558Z,1.90
2022-12-06T05:26:55.689Z,1.89
2022-12-06T05:31:56.936Z,1.94
2022-12-06T05:36:58.130Z,1.99
2022-12-06T05:41:59.331Z,2.04
2022-12-06T05:47:00.482Z,2.13
2022-12-06T05:52:04.241Z,2.16
2022-12-06T05:57:01.573Z,2.20
2022-12-06T06:02:02.880Z,2.27
2022-12-06T06:07:04.150Z,2.13
2022-12-06T06:12:09.526Z,2.02
2022-12-06T06:17:05.395Z,1.89
2022-12-06T06:22:06.546Z,1.73
2022-12-06T06:27:07.730Z,1.71
2022-12-06T06:32:08.894Z,1.87
2022-12-06T06:37:10.141Z,2.04
2022-12-06T06:42:11.321Z,2.16
2022-12-06T06:47:12.476Z,2.23
2022-12-06T06:52:13.643Z,2.19
2022-12-06T06:57:17.887Z,2.10
2022-12-06T07:02:15.404Z,1.91
2022-12-06T07:07:21.056Z,1.69
2022-12-06T07:12:15.564Z,1.61
2022-12-06T07:17:16.756Z,1.65
2022-12-06T07:22:17.922Z,1.73
2022-12-06T07:27:19.062Z,1.79
2022-12-06T07:32:20.208Z,1.85
2022-12-06T07:37:22.359Z,1.87
2022-12-06T07:42:22.502Z,1.98
2022-12-06T07:47:23.646Z,2.13
2022-12-06T07:52:22.751Z,2.31
2022-12-06T07:57:23.877Z,2.48
2022-12-06T08:02:25.237Z,2.56
2022-12-06T08:07:26.387Z,2.55
2022-12-06T08:12:27.547Z,2.55
2022-12-06T08:17:27.702Z,2.64
2022-12-06T08:22:28.831Z,2.73
2022-12-06T08:27:29.948Z,2.91
2022-12-06T08:32:30.098Z,3.05
2022-12-06T08:37:31.232Z,3.13
2022-12-06T08:42:32.362Z,3.21
2022-12-06T08:47:34.495Z,3.28
2022-12-06T08:52:34.616Z,3.31
2022-12-06T08:57:34.764Z,3.34
2022-12-06T09:02:33.991Z,3.28
2022-12-06T09:07:37.228Z,3.62
2022-12-06T09:12:37.420Z,3.49
2022-12-06T09:17:38.524Z,3.50
2022-12-06T09:22:38.637Z,3.40
2022-12-06T09:27:38.762Z,3.25
2022-12-06T09:32:37.905Z,3.43
2022-12-06T09:37:39.141Z,3.68
2022-12-06T09:42:40.222Z,4.10
2022-12-06T09:47:41.342Z,4.34
2022-12-06T09:52:42.491Z,4.57
2022-12-06T09:57:44.611Z,4.83
2022-12-06T10:02:43.837Z,4.89
2022-12-06T10:07:45.118Z,4.67
2022-12-06T10:12:46.582Z,4.96
2022-12-06T10:17:52.276Z,5.22
2022-12-06T10:22:47.791Z,5.34
2022-12-06T10:27:48.959Z,5.60
2022-12-06T10:32:50.148Z,5.81
2022-12-06T10:37:53.299Z,5.96
2022-12-06T10:42:52.392Z,6.00
2022-12-06T10:47:54.530Z,5.95
2022-12-06T10:52:57.299Z,6.26
2022-12-06T10:57:53.621Z,6.21
2022-12-06T11:02:54.834Z,6.16
2022-12-06T11:07:55.994Z,6.26
2022-12-06T11:12:57.076Z,6.44
2022-12-06T11:18:02.443Z,6.69
2022-12-06T11:22:58.962Z,6.84
2022-12-06T11:27:59.121Z,6.83
2022-12-06T11:32:59.201Z,6.94
2022-12-06T11:38:00.455Z,7.15
2022-12-06T11:42:59.566Z,7.20
2022-12-06T11:48:00.737Z,6.99
2022-12-06T11:53:02.908Z,7.05
2022-12-06T11:58:02.022Z,7.35
2022-12-06T12:03:04.227Z,8.02
2022-12-06T12:08:03.465Z,7.96
2022-12-06T12:13:04.553Z,7.66
2022-12-06T12:18:06.741Z,7.77
2022-12-06T12:23:05.941Z,8.07
2022-12-06T12:28:07.141Z,8.18
2022-12-06T12:33:09.279Z,7.96
2022-12-06T12:38:09.498Z,7.90
2022-12-06T12:43:08.713Z,8.00
2022-12-06T12:48:10.846Z,7.66
2022-12-06T12:53:10.037Z,7.31
2022-12-06T12:58:13.317Z,6.83
2022-12-06T13:03:34.797Z,6.59
2022-12-06T13:08:12.502Z,6.26
2022-12-06T13:13:13.652Z,5.95
2022-12-06T13:18:15.768Z,5.68
2022-12-06T13:23:14.872Z,5.63
2022-12-06T13:28:16.130Z,5.68
2022-12-06T13:33:20.927Z,5.43
2022-12-06T13:38:24.261Z,5.43
2022-12-06T13:43:19.712Z,5.50
2022-12-06T13:48:18.908Z,5.64
2022-12-06T13:53:21.059Z,5.57
2022-12-06T13:58:20.179Z,5.52
2022-12-06T14:03:21.419Z,5.45
2022-12-06T14:08:23.596Z,5.37
2022-12-06T14:13:24.733Z,5.22
2022-12-06T14:18:23.862Z,5.13
2022-12-06T14:23:25.963Z,5.05
2022-12-06T14:28:25.275Z,5.01
2022-12-06T14:33:26.415Z,4.95
2022-12-06T14:38:27.541Z,4.91
2022-12-06T14:43:28.807Z,4.94
2022-12-06T14:48:30.897Z,4.91
2022-12-06T14:53:31.058Z,4.83
2022-12-06T14:58:30.194Z,4.59
2022-12-06T15:03:31.505Z,4.65
2022-12-06T15:08:33.704Z,4.34
2022-12-06T15:13:32.866Z,4.32
2022-12-06T15:18:35.022Z,4.15
2022-12-06T15:23:34.128Z,4.01
2022-12-06T15:28:35.288Z,3.89
2022-12-06T15:33:37.374Z,3.68
2022-12-06T15:38:36.474Z,3.49
2022-12-06T15:43:38.587Z,3.49
2022-12-06T15:48:39.738Z,3.44
2022-12-06T15:53:38.878Z,3.25
2022-12-06T15:58:41.170Z,3.23
2022-12-06T16:03:40.331Z,3.02
2022-12-06T16:08:41.677Z,3.09
2022-12-06T16:13:43.761Z,3.10
2022-12-06T16:18:43.035Z,3.05
2022-12-06T16:24:12.053Z,3.10
2022-12-06T16:28:44.252Z,2.98
2022-12-06T16:33:46.386Z,2.95
2022-12-06T16:38:47.530Z,2.76
2022-12-06T16:43:46.850Z,2.76
2022-12-06T16:48:55.319Z,2.66
2022-12-06T16:53:49.240Z,2.73
2022-12-06T16:58:50.557Z,2.64
2022-12-06T17:03:51.855Z,2.51
2022-12-06T17:08:54.254Z,2.56
2022-12-06T17:13:53.687Z,2.58
2022-12-06T17:18:54.960Z,1.99
2022-12-06T17:23:57.290Z,2.06
2022-12-06T17:28:56.545Z,1.98
2022-12-06T17:33:57.864Z,1.71
2022-12-06T17:39:00.479Z,1.62
2022-12-06T17:44:00.008Z,1.68
2022-12-06T17:48:59.399Z,1.68
2022-12-06T17:54:08.864Z,1.54
2022-12-06T17:59:00.873Z,1.34
2022-12-06T18:04:00.865Z,1.10
2022-12-06T18:09:00.375Z,0.90
2022-12-06T18:13:59.536Z,0.72
2022-12-06T18:19:07.187Z,0.76
2022-12-06T18:24:20.780Z,0.61
2022-12-06T18:29:04.285Z,0.45
2022-12-06T18:34:04.649Z,0.34
2022-12-06T18:39:03.874Z,0.33
2022-12-06T18:44:04.991Z,0.24
2022-12-06T18:49:06.497Z,0.36
2022-12-06T18:54:06.076Z,0.38
2022-12-06T18:59:06.571Z,0.48
2022-12-06T19:04:05.052Z,0.46
2022-12-06T19:09:07.591Z,0.46
2022-12-06T19:14:08.051Z,0.30
2022-12-06T19:19:12.798Z,0.30
2022-12-06T19:24:08.862Z,0.45
2022-12-06T19:29:08.282Z,0.45
2022-12-06T19:34:09.578Z,0.42
2022-12-06T19:39:11.726Z,0.70
2022-12-06T19:44:12.129Z,0.67
2022-12-06T19:49:12.610Z,0.68
2022-12-06T19:54:12.609Z,0.31
2022-12-06T19:59:12.188Z,0.20
2022-12-06T20:04:14.168Z,0.15
2022-12-06T20:09:11.673Z,0.15
2022-12-06T20:14:11.126Z,0.00
2022-12-06T20:19:12.575Z,0.15
2022-12-06T20:24:14.087Z,-0.12
2022-12-06T20:29:13.692Z,-0.12
2022-12-06T20:34:15.050Z,-0.42
2022-12-06T20:39:12.960Z,-0.39
2022-12-06T20:44:15.483Z,0.03
2022-12-06T20:49:15.022Z,-0.45
2022-12-06T20:54:16.633Z,-0.66
2022-12-06T20:59:14.769Z,-0.65
2022-12-06T21:04:14.019Z,-0.55
2022-12-06T21:09:15.201Z,-0.55
2022-12-06T21:14:16.368Z,-0.45
2022-12-06T21:19:17.542Z,-0.24
2022-12-06T21:24:19.748Z,-0.19
2022-12-06T21:29:17.927Z,-0.41
2022-12-06T21:34:20.078Z,-0.55
2022-12-06T21:39:20.251Z,-0.66
2022-12-06T21:44:19.392Z,-0.60
2022-12-06T21:49:20.532Z,-0.47
2022-12-06T21:54:21.649Z,-0.48
2022-12-06T21:59:22.811Z,-0.36
2022-12-06T22:04:23.950Z,-0.59
2022-12-06T22:09:25.104Z,-0.73
2022-12-06T22:14:26.252Z,-0.68
2022-12-06T22:19:27.373Z,-0.57
2022-12-06T22:24:28.548Z,-0.52
2022-12-06T22:29:29.650Z,-0.60
2022-12-06T22:34:30.787Z,-0.59
2022-12-06T22:39:32.916Z,-0.48
2022-12-06T22:44:32.120Z,-0.51
2022-12-06T22:49:33.261Z,-0.41
2022-12-06T22:54:34.379Z,-0.30
2022-12-06T22:59:35.499Z,-0.16
2022-12-06T23:04:37.627Z,0.10
2022-12-06T23:09:37.451Z,0.02
2022-12-06T23:14:36.594Z,0.06
2022-12-06T23:19:37.746Z,0.09
2022-12-06T23:24:38.884Z,0.25
2022-12-06T23:29:40.004Z,0.25
2022-12-06T23:34:41.184Z,0.23
2022-12-06T23:39:42.348Z,0.34
2022-12-06T23:44:47.420Z,0.34
2022-12-06T23:49:44.575Z,0.33
2022-12-06T23:54:45.710Z,0.43
2022-12-06T23:59:46.795Z,0.61
